Aérodrome :
LOGIN :

S'inscrire | Disclaimer

   EN    FR    IT 

 










Légende :    VFR   VFR Marginal   IFR   IFR Intensif   IFR Très Intensif
Visi : 
Plafond : 
>= 8 km
>= 3000ft
5 à 8 km
1000 à 3000 ft
1500m à 5 km
500 à 1000 ft
800 à 1500m
200 à 500 ft
< 800m
< 200 ft
Symboles :   Orages  Brouillard  Fortes neiges  Fortes précipitations  Vent > 20 kt
SIGMETs :   Divers  Orages  Givrage  Turbulence  Onde Orograph.  Cendres Volcan.






- Altitude de l'aérodrome : 39 ft
- Code IATA : TRS


LIPQ - Friuli Venezia Giulia Apt. Trieste

DERNIER METAR :
  • 291320Z AUTO 24006KT 210V280 9999 BKN049/// 28/20 Q1011

METARs EXPIRÉS :
  • 291250Z AUTO 26006KT 230V290 9999 BKN049/// 28/20 Q1011
  • 291220Z AUTO 23009KT 9999 FEW070/// 28/20 Q1011
  • 291150Z AUTO 21008KT 180V240 9999 FEW046/// 29/21 Q1011
  • 291120Z AUTO 21010KT 180V250 9999 FEW066/// 29/20 Q1011
  • 291050Z AUTO 21011KT 160V240 9999 FEW062/// 28/20 Q1011

TAF TAF LIPQ
Valide du 29 à 12h jusqu'au 30 à 12h UTC


291100Z 2912/3012 19012KT 9999 SCT050
PROB40
TEMPO 2912/2917 SHRA
BECMG 2916/2918 VRB05KT



MET'MAP, la Météo Aéronautique d'un coup d'oeil ! - Copyright ORBIFLY Décembre 2007 - Disclaimer

ORBIFLY MET'MAP TEAM :

Programmation & Développement : Alexandra Zaïnal
Sur une idée originale de : Baudouin d'Aumeries
Soutien technique & logistique : Manuel Goepfert
Assistance : Marc-Olivier Méhu




SOURCES & CREDITS :

   NOAA